createdAt,value
2022-11-08T00:02:05.484Z,29.70
2022-11-08T00:04:32.253Z,28.23
2022-11-08T00:07:17.444Z,29.38
2022-11-08T00:10:02.721Z,29.50
2022-11-08T00:12:47.589Z,29.75
2022-11-08T00:15:14.122Z,29.85
2022-11-08T00:17:40.676Z,28.50
2022-11-08T00:20:08.892Z,29.17
2022-11-08T00:22:35.433Z,30.10
2022-11-08T00:25:01.986Z,29.58
2022-11-08T00:27:28.475Z,29.25
2022-11-08T00:29:55.041Z,28.70
2022-11-08T00:32:24.280Z,29.27
2022-11-08T00:34:52.945Z,29.70
2022-11-08T00:37:20.952Z,29.42
2022-11-08T00:39:48.124Z,29.50
2022-11-08T00:42:15.074Z,29.85
2022-11-08T00:44:41.724Z,29.83
2022-11-08T00:47:08.239Z,30.45
2022-11-08T00:49:35.022Z,29.50
2022-11-08T00:52:01.659Z,31.83
2022-11-08T00:54:28.203Z,30.98
2022-11-08T00:56:54.709Z,30.73
2022-11-08T00:59:21.276Z,30.58
2022-11-08T01:01:48.437Z,31.55
2022-11-08T01:04:18.593Z,31.02
2022-11-08T01:06:45.647Z,32.10
2022-11-08T01:09:12.708Z,31.55
2022-11-08T01:11:40.132Z,33.08
2022-11-08T01:14:06.699Z,33.20
2022-11-08T01:16:34.257Z,33.30
2022-11-08T01:19:02.351Z,34.15
2022-11-08T01:21:29.478Z,34.25
2022-11-08T01:23:56.461Z,35.25
2022-11-08T01:26:27.969Z,35.75
2022-11-08T01:28:56.241Z,37.22
2022-11-08T01:31:28.732Z,38.58
2022-11-08T01:33:56.490Z,38.42
2022-11-08T01:36:25.948Z,40.28
2022-11-08T01:38:53.227Z,40.72
2022-11-08T01:41:21.773Z,42.47
2022-11-08T01:43:55.629Z,42.83
2022-11-08T01:46:35.880Z,44.05
2022-11-08T01:49:30.150Z,43.53
2022-11-08T01:52:14.685Z,45.63
2022-11-08T01:55:02.599Z,45.63
2022-11-08T01:57:53.248Z,46.15
2022-11-08T02:00:19.997Z,47.80
2022-11-08T02:02:51.622Z,48.05
2022-11-08T02:05:25.530Z,49.97
2022-11-08T02:08:01.278Z,47.55
2022-11-08T02:10:34.648Z,48.65
2022-11-08T02:13:04.933Z,49.20
2022-11-08T02:15:31.961Z,48.35
2022-11-08T02:17:58.588Z,48.78
2022-11-08T02:20:25.139Z,49.20
2022-11-08T02:23:12.069Z,49.92
2022-11-08T02:25:38.657Z,49.00
2022-11-08T02:28:05.206Z,49.25
2022-11-08T02:30:36.370Z,49.10
2022-11-08T02:33:16.320Z,47.83
2022-11-08T02:35:46.433Z,49.25
2022-11-08T02:38:12.913Z,47.00
2022-11-08T02:40:49.985Z,47.58
2022-11-08T02:43:16.671Z,49.28
2022-11-08T02:45:43.240Z,48.58
2022-11-08T02:48:10.059Z,48.40
2022-11-08T02:50:36.786Z,48.17
2022-11-08T02:53:03.554Z,46.83
2022-11-08T02:55:30.483Z,47.55
2022-11-08T02:57:57.250Z,49.63
2022-11-08T03:00:23.913Z,48.85
2022-11-08T03:02:54.566Z,49.42
2022-11-08T03:05:21.825Z,50.53
2022-11-08T03:07:48.618Z,49.40
2022-11-08T03:10:16.252Z,50.13
2022-11-08T03:12:43.098Z,50.65
2022-11-08T03:15:11.884Z,49.17
2022-11-08T03:17:38.739Z,49.83
2022-11-08T03:20:07.173Z,48.00
2022-11-08T03:22:33.726Z,48.22
2022-11-08T03:25:00.215Z,44.97
2022-11-08T03:27:27.105Z,43.70
2022-11-08T03:29:53.582Z,41.90
2022-11-08T03:32:20.061Z,42.75
2022-11-08T03:34:46.567Z,42.50
2022-11-08T03:37:13.061Z,45.55
2022-11-08T03:39:39.537Z,46.22
2022-11-08T03:42:06.432Z,47.20
2022-11-08T03:44:33.012Z,45.67
2022-11-08T03:47:00.329Z,47.58
2022-11-08T03:49:26.892Z,48.15
2022-11-08T03:51:54.642Z,48.50
2022-11-08T03:54:21.214Z,51.72
2022-11-08T03:56:47.958Z,49.35
2022-11-08T03:59:14.543Z,51.78
2022-11-08T04:01:41.281Z,47.15
2022-11-08T04:04:07.985Z,47.50
2022-11-08T04:06:34.517Z,47.58
2022-11-08T04:09:01.041Z,48.28
2022-11-08T04:11:46.006Z,50.13
2022-11-08T04:14:31.130Z,51.58
2022-11-08T04:16:57.660Z,57.63
2022-11-08T04:19:42.556Z,59.15
2022-11-08T04:22:11.642Z,57.28
2022-11-08T04:24:38.147Z,58.10
2022-11-08T04:27:04.647Z,60.25
2022-11-08T04:29:31.260Z,55.55
2022-11-08T04:31:57.770Z,53.28
2022-11-08T04:34:24.256Z,55.38
2022-11-08T04:36:50.737Z,54.35
2022-11-08T04:39:17.352Z,53.72
2022-11-08T04:41:43.866Z,47.97
2022-11-08T04:44:10.435Z,46.00
2022-11-08T04:46:36.932Z,44.80
2022-11-08T04:49:04.587Z,47.88
2022-11-08T04:51:32.861Z,49.13
2022-11-08T04:54:01.398Z,49.40
2022-11-08T04:56:29.846Z,50.55
2022-11-08T04:58:58.564Z,49.95
2022-11-08T05:01:28.063Z,50.38
2022-11-08T05:03:55.345Z,48.95
2022-11-08T05:06:24.598Z,52.90
2022-11-08T05:08:51.632Z,51.35
2022-11-08T05:11:22.461Z,55.55
2022-11-08T05:13:50.236Z,50.97
2022-11-08T05:16:22.387Z,49.60
2022-11-08T05:18:49.106Z,48.20
2022-11-08T05:21:36.057Z,47.83
2022-11-08T05:24:04.925Z,49.00
2022-11-08T05:26:34.964Z,50.05
2022-11-08T05:29:01.598Z,48.38
2022-11-08T05:31:28.353Z,48.17
2022-11-08T05:33:54.887Z,48.70
2022-11-08T05:36:21.593Z,51.85
2022-11-08T05:38:48.306Z,47.42
2022-11-08T05:41:20.596Z,53.13
2022-11-08T05:43:49.398Z,55.53
2022-11-08T05:46:17.484Z,53.70
2022-11-08T05:48:44.718Z,57.30
2022-11-08T05:51:12.210Z,61.53
2022-11-08T05:53:39.972Z,61.78
2022-11-08T05:56:06.878Z,70.28
2022-11-08T05:58:34.949Z,72.57
2022-11-08T06:01:01.873Z,76.00
2022-11-08T06:03:29.603Z,69.25
2022-11-08T06:06:00.966Z,67.63
2022-11-08T06:08:27.507Z,76.28
2022-11-08T06:10:54.013Z,74.75
2022-11-08T06:13:20.521Z,77.88
2022-11-08T06:15:46.984Z,88.22
2022-11-08T06:18:13.485Z,92.55
2022-11-08T06:20:40.046Z,94.40
2022-11-08T06:23:06.592Z,86.45
2022-11-08T06:25:33.396Z,95.20
2022-11-08T06:28:00.777Z,105.22
2022-11-08T06:30:27.253Z,113.88
2022-11-08T06:32:53.775Z,114.32
2022-11-08T06:35:20.277Z,118.60
2022-11-08T06:37:47.030Z,130.55
2022-11-08T06:40:13.971Z,151.25
2022-11-08T06:42:40.483Z,163.40
2022-11-08T06:45:07.419Z,159.30
2022-11-08T06:47:33.979Z,166.13
2022-11-08T06:50:00.494Z,170.85
2022-11-08T06:52:26.973Z,189.80
2022-11-08T06:54:53.625Z,186.70
2022-11-08T06:57:20.114Z,205.02
2022-11-08T06:59:46.685Z,219.85
2022-11-08T07:02:13.244Z,232.45
2022-11-08T07:04:40.207Z,267.00
2022-11-08T07:07:06.957Z,261.60
2022-11-08T07:09:33.856Z,251.00
2022-11-08T07:12:00.374Z,248.45
2022-11-08T07:14:26.911Z,258.58
2022-11-08T07:16:53.417Z,283.27
2022-11-08T07:19:19.909Z,285.67
2022-11-08T07:21:46.664Z,319.98
2022-11-08T07:24:13.189Z,333.80
2022-11-08T07:26:39.712Z,342.98
2022-11-08T07:29:06.244Z,318.95
2022-11-08T07:31:32.761Z,348.27
2022-11-08T07:33:59.284Z,364.40
2022-11-08T07:36:25.796Z,363.67
2022-11-08T07:38:52.472Z,385.83
2022-11-08T07:41:19.022Z,407.92
2022-11-08T07:43:45.505Z,425.20
2022-11-08T07:46:12.037Z,431.27
2022-11-08T07:48:38.604Z,443.30
2022-11-08T07:51:05.193Z,453.38
2022-11-08T07:53:31.730Z,467.23
2022-11-08T07:55:58.418Z,480.08
2022-11-08T07:58:25.490Z,489.08
2022-11-08T08:00:52.164Z,488.73
2022-11-08T08:03:19.079Z,483.17
2022-11-08T08:05:46.029Z,485.02
2022-11-08T08:08:13.515Z,486.63
2022-11-08T08:10:41.263Z,493.55
2022-11-08T08:13:07.872Z,495.80
2022-11-08T08:15:34.492Z,507.52
2022-11-08T08:18:02.833Z,513.00
2022-11-08T08:20:30.646Z,512.70
2022-11-08T08:22:57.898Z,511.58
2022-11-08T08:25:25.151Z,515.97
2022-11-08T08:27:56.812Z,512.50
2022-11-08T08:30:24.849Z,514.45
2022-11-08T08:33:21.940Z,511.55
2022-11-08T08:35:39.255Z,507.23
2022-11-08T08:38:06.988Z,499.33
2022-11-08T08:40:34.177Z,498.85
2022-11-08T08:43:03.187Z,484.27
2022-11-08T08:45:30.558Z,497.25
2022-11-08T08:47:59.642Z,496.30
2022-11-08T08:50:28.545Z,494.17
2022-11-08T08:52:59.848Z,488.33
2022-11-08T08:55:26.894Z,478.88
2022-11-08T08:57:54.019Z,482.25
2022-11-08T09:03:09.829Z,466.42
2022-11-08T09:05:37.522Z,457.52
2022-11-08T09:08:04.302Z,458.52
2022-11-08T09:10:30.936Z,415.98
2022-11-08T09:12:57.427Z,401.33
2022-11-08T09:15:24.072Z,381.20
2022-11-08T09:17:54.340Z,362.80
2022-11-08T09:20:21.241Z,336.67
2022-11-08T09:22:47.801Z,327.60
2022-11-08T09:25:15.554Z,330.70
2022-11-08T09:27:42.299Z,297.58
2022-11-08T09:30:09.586Z,259.65
2022-11-08T09:32:59.050Z,285.13
2022-11-08T09:35:23.305Z,267.88
2022-11-08T09:37:50.176Z,252.45
2022-11-08T09:40:51.065Z,252.25
2022-11-08T09:44:04.321Z,256.27
2022-11-08T09:46:53.595Z,252.63
2022-11-08T09:49:42.925Z,263.85
2022-11-08T09:52:16.209Z,291.85
2022-11-08T09:54:46.610Z,327.73
2022-11-08T09:57:43.842Z,306.73
2022-11-08T10:00:12.887Z,310.52
2022-11-08T10:02:39.582Z,293.77
2022-11-08T10:05:12.825Z,288.30
2022-11-08T10:08:02.463Z,263.13
2022-11-08T10:10:40.722Z,296.30
2022-11-08T10:13:37.596Z,332.90
2022-11-08T10:16:06.992Z,340.70
2022-11-08T10:18:40.369Z,345.55
2022-11-08T10:21:39.232Z,355.60
2022-11-08T10:24:23.162Z,328.08
2022-11-08T10:26:52.164Z,321.30
2022-11-08T10:29:28.398Z,283.77
2022-11-08T10:32:05.579Z,298.65
2022-11-08T10:34:41.295Z,283.27
2022-11-08T10:37:13.465Z,239.07
2022-11-08T10:39:48.095Z,215.18
2022-11-08T10:44:59.693Z,166.93
2022-11-08T10:47:29.393Z,217.93
2022-11-08T10:50:00.906Z,317.90
2022-11-08T10:53:02.372Z,337.70
2022-11-08T10:55:33.445Z,380.10
2022-11-08T10:58:01.250Z,419.48
2022-11-08T11:00:30.609Z,311.17
2022-11-08T11:03:06.101Z,386.75
2022-11-08T11:05:38.182Z,168.63
2022-11-08T11:08:14.895Z,117.78
2022-11-08T11:10:47.591Z,71.63
2022-11-08T11:18:37.148Z,48.55
2022-11-08T11:21:21.932Z,44.85
2022-11-08T11:23:51.954Z,77.95
2022-11-08T11:26:30.232Z,56.80
2022-11-08T11:29:05.989Z,54.38
2022-11-08T11:31:36.488Z,52.13
2022-11-08T11:34:18.184Z,65.15
2022-11-08T11:37:10.777Z,71.05
2022-11-08T11:39:57.601Z,59.97
2022-11-08T11:42:44.517Z,72.75
2022-11-08T11:45:34.758Z,56.38
2022-11-08T11:48:05.105Z,91.50
2022-11-08T11:50:37.271Z,100.47
2022-11-08T11:53:22.818Z,70.35
2022-11-08T11:56:01.566Z,45.65
2022-11-08T11:58:40.209Z,67.45
2022-11-08T12:01:40.658Z,30.60
2022-11-08T12:04:40.957Z,33.22
2022-11-08T12:07:29.419Z,27.73
2022-11-08T12:10:11.086Z,27.25
2022-11-08T12:12:59.036Z,26.88
2022-11-08T12:16:00.745Z,33.80
2022-11-08T12:18:42.140Z,33.33
2022-11-08T12:21:33.329Z,31.83
2022-11-08T12:24:44.730Z,26.98
2022-11-08T12:27:30.422Z,26.48
2022-11-08T12:30:16.186Z,21.75
2022-11-08T12:33:08.556Z,21.73
2022-11-08T12:36:01.265Z,22.77
2022-11-08T12:38:54.941Z,23.00
2022-11-08T12:42:00.105Z,22.75
2022-11-08T12:45:07.814Z,24.17
2022-11-08T12:47:56.025Z,23.50
2022-11-08T12:50:50.000Z,23.15
2022-11-08T12:53:40.301Z,23.10
2022-11-08T12:56:15.437Z,23.27
2022-11-08T12:58:46.989Z,23.17
2022-11-08T13:01:15.942Z,22.45
2022-11-08T13:03:42.857Z,23.15
2022-11-08T13:06:37.180Z,23.30
2022-11-08T13:09:47.675Z,21.58
2022-11-08T13:12:32.714Z,22.98
2022-11-08T13:15:00.833Z,22.92
2022-11-08T13:17:28.665Z,22.65
2022-11-08T13:20:06.381Z,23.42
2022-11-08T13:22:32.842Z,22.08
2022-11-08T13:25:00.606Z,22.85
2022-11-08T13:27:44.213Z,25.17
2022-11-08T13:30:16.789Z,23.80
2022-11-08T13:32:43.265Z,22.85
2022-11-08T13:35:15.835Z,29.50
2022-11-08T13:37:54.216Z,24.80
2022-11-08T13:40:29.786Z,24.20
2022-11-08T13:43:18.529Z,23.77
2022-11-08T13:45:45.745Z,26.40
2022-11-08T13:48:36.128Z,24.10
2022-11-08T13:51:23.082Z,24.73
2022-11-08T13:54:01.302Z,25.77
2022-11-08T13:56:43.098Z,24.33
2022-11-08T13:59:31.560Z,25.98
2022-11-08T14:01:58.433Z,26.92
2022-11-08T14:04:32.958Z,27.83
2022-11-08T14:07:05.481Z,28.65
2022-11-08T14:10:13.800Z,25.83
2022-11-08T14:12:46.473Z,26.10
2022-11-08T14:15:24.873Z,22.75
2022-11-08T14:18:23.369Z,26.25
2022-11-08T14:20:50.425Z,23.77
2022-11-08T14:23:20.369Z,24.17
2022-11-08T14:26:11.575Z,23.48
2022-11-08T14:28:41.045Z,21.70
2022-11-08T14:31:24.281Z,23.38
2022-11-08T14:33:50.932Z,23.15
2022-11-08T14:36:19.681Z,22.15
2022-11-08T14:38:49.207Z,22.20
2022-11-08T14:41:29.569Z,24.33
2022-11-08T14:43:59.278Z,24.50
2022-11-08T14:46:31.518Z,26.23
2022-11-08T14:49:07.491Z,28.05
2022-11-08T14:51:34.457Z,30.60
2022-11-08T14:54:01.421Z,31.80
2022-11-08T14:56:36.810Z,31.95
2022-11-08T14:59:06.914Z,33.22
2022-11-08T15:01:34.985Z,35.35
2022-11-08T15:04:14.505Z,35.08
2022-11-08T15:06:50.133Z,33.85
2022-11-08T15:09:43.192Z,34.53
2022-11-08T15:12:17.335Z,35.03
2022-11-08T15:15:02.233Z,37.35
2022-11-08T15:17:39.747Z,39.70
2022-11-08T15:20:20.187Z,41.53
2022-11-08T15:22:48.461Z,44.00
2022-11-08T15:25:28.466Z,52.08
2022-11-08T15:27:57.711Z,66.47
2022-11-08T15:30:30.238Z,86.65
2022-11-08T15:32:56.933Z,94.60
2022-11-08T15:35:31.876Z,91.65
2022-11-08T15:38:21.335Z,81.22
2022-11-08T15:40:52.776Z,67.20
2022-11-08T15:43:45.314Z,49.67
2022-11-08T15:46:38.210Z,44.05
2022-11-08T15:49:36.710Z,37.15
2022-11-08T15:52:04.254Z,36.75
2022-11-08T15:54:30.745Z,39.45
2022-11-08T15:56:57.386Z,43.00
2022-11-08T15:59:28.549Z,49.58
2022-11-08T16:01:58.598Z,52.55
2022-11-08T16:04:26.919Z,60.22
2022-11-08T16:06:55.571Z,68.43
2022-11-08T16:09:22.130Z,78.32
2022-11-08T16:11:49.713Z,99.07
2022-11-08T16:14:19.993Z,110.10
2022-11-08T16:16:46.928Z,119.80
2022-11-08T16:19:23.601Z,131.20
2022-11-08T16:21:51.614Z,141.25
2022-11-08T16:24:18.385Z,144.68
2022-11-08T16:26:45.923Z,147.25
2022-11-08T16:29:24.289Z,153.73
2022-11-08T16:31:51.391Z,152.50
2022-11-08T16:34:18.354Z,150.68
2022-11-08T16:36:46.489Z,151.77
2022-11-08T16:39:18.368Z,146.73
2022-11-08T16:41:45.413Z,141.35
2022-11-08T16:44:12.204Z,129.13
2022-11-08T16:46:39.329Z,126.80
2022-11-08T16:49:07.230Z,119.18
2022-11-08T16:51:34.074Z,117.38
2022-11-08T16:54:02.745Z,114.68
2022-11-08T16:56:29.360Z,109.03
2022-11-08T16:58:55.890Z,107.00
2022-11-08T17:01:32.433Z,97.35
2022-11-08T17:03:58.953Z,84.63
2022-11-08T17:06:25.696Z,81.75
2022-11-08T17:08:52.310Z,74.60
2022-11-08T17:11:21.567Z,72.03
2022-11-08T17:13:48.672Z,66.32
2022-11-08T17:16:15.946Z,60.95
2022-11-08T17:18:42.811Z,60.40
2022-11-08T17:21:38.237Z,59.33
2022-11-08T17:23:58.745Z,54.17
2022-11-08T17:26:25.311Z,55.30
2022-11-08T17:28:56.232Z,49.85
2022-11-08T17:31:22.804Z,50.97
2022-11-08T17:33:50.553Z,49.58
2022-11-08T17:36:17.106Z,51.95
2022-11-08T17:38:43.651Z,49.65
2022-11-08T17:41:15.035Z,47.28
2022-11-08T17:43:42.625Z,49.00
2022-11-08T17:46:10.770Z,49.28
2022-11-08T17:48:39.446Z,48.65
2022-11-08T17:51:06.185Z,48.67
2022-11-08T17:53:33.762Z,52.03
2022-11-08T17:56:02.001Z,48.47
2022-11-08T17:58:29.084Z,52.00
2022-11-08T18:00:58.024Z,53.50
2022-11-08T18:03:26.072Z,52.60
2022-11-08T18:06:16.478Z,53.08
2022-11-08T18:08:43.373Z,54.38
2022-11-08T18:11:09.938Z,53.80
2022-11-08T18:13:36.488Z,55.83
2022-11-08T18:16:08.763Z,54.40
2022-11-08T18:18:36.769Z,55.85
2022-11-08T18:21:03.733Z,55.42
2022-11-08T18:23:30.208Z,53.60
2022-11-08T18:25:56.720Z,53.83
2022-11-08T18:28:24.258Z,58.28
2022-11-08T18:30:51.103Z,54.53
2022-11-08T18:33:20.179Z,53.65
2022-11-08T18:35:47.103Z,57.72
2022-11-08T18:38:14.039Z,57.75
2022-11-08T18:40:44.645Z,62.72
2022-11-08T18:43:11.421Z,56.78
2022-11-08T18:45:38.047Z,54.72
2022-11-08T18:48:04.706Z,58.65
2022-11-08T18:50:31.297Z,57.78
2022-11-08T18:53:03.098Z,54.60
2022-11-08T18:55:31.399Z,60.17
2022-11-08T18:57:57.888Z,59.13
2022-11-08T19:00:24.561Z,57.33
2022-11-08T19:02:51.128Z,59.53
2022-11-08T19:05:17.853Z,60.47
2022-11-08T19:07:44.354Z,58.88
2022-11-08T19:10:10.936Z,58.90
2022-11-08T19:12:37.457Z,59.15
2022-11-08T19:15:04.206Z,64.75
2022-11-08T19:17:31.896Z,64.90
2022-11-08T19:19:58.403Z,63.88
2022-11-08T19:22:24.956Z,67.30
2022-11-08T19:24:51.426Z,67.30
2022-11-08T19:27:18.006Z,72.18
2022-11-08T19:29:44.484Z,79.47
2022-11-08T19:32:10.956Z,72.18
2022-11-08T19:34:37.645Z,74.88
2022-11-08T19:37:04.272Z,78.10
2022-11-08T19:39:30.863Z,83.00
2022-11-08T19:41:58.717Z,83.03
2022-11-08T19:44:25.614Z,78.72
2022-11-08T19:46:52.123Z,84.38
2022-11-08T19:49:19.721Z,83.40
2022-11-08T19:51:46.198Z,85.75
2022-11-08T19:54:14.597Z,87.03
2022-11-08T19:57:04.002Z,90.93
2022-11-08T19:59:27.576Z,82.25
2022-11-08T20:01:54.160Z,94.43
2022-11-08T20:04:20.996Z,98.20
2022-11-08T20:06:47.746Z,96.95
2022-11-08T20:09:14.324Z,92.15
2022-11-08T20:11:42.300Z,96.93
2022-11-08T20:14:11.649Z,95.68
2022-11-08T20:16:41.835Z,99.55
2022-11-08T20:19:13.922Z,97.47
2022-11-08T20:21:42.280Z,94.60
2022-11-08T20:24:10.440Z,101.38
2022-11-08T20:26:38.492Z,102.50
2022-11-08T20:29:07.326Z,98.38
2022-11-08T20:31:34.099Z,101.57
2022-11-08T20:34:01.676Z,105.68
2022-11-08T20:36:33.146Z,102.70
2022-11-08T20:39:05.622Z,104.28
2022-11-08T20:41:35.696Z,116.85
2022-11-08T20:44:02.634Z,116.53
2022-11-08T20:46:29.705Z,118.63
2022-11-08T20:49:00.361Z,117.93
2022-11-08T20:51:27.769Z,117.45
2022-11-08T20:53:55.970Z,116.43
2022-11-08T20:56:23.548Z,118.53
2022-11-08T20:58:51.308Z,122.25
2022-11-08T21:01:21.108Z,133.82
2022-11-08T21:03:48.341Z,128.15
2022-11-08T21:06:17.963Z,133.75
2022-11-08T21:09:07.486Z,144.48
2022-11-08T21:11:34.487Z,149.23
2022-11-08T21:14:01.827Z,162.82
2022-11-08T21:16:31.956Z,173.80
2022-11-08T21:19:01.994Z,167.68
2022-11-08T21:21:29.708Z,169.93
2022-11-08T21:23:56.610Z,177.10
2022-11-08T21:26:23.621Z,178.75
2022-11-08T21:28:51.009Z,178.43
2022-11-08T21:31:17.987Z,188.05
2022-11-08T21:33:44.546Z,189.43
2022-11-08T21:36:11.296Z,196.93
2022-11-08T21:38:39.678Z,195.40
2022-11-08T21:41:09.304Z,198.93
2022-11-08T21:43:37.357Z,194.60
2022-11-08T21:46:21.414Z,200.07
2022-11-08T21:48:53.390Z,195.90
2022-11-08T21:51:20.191Z,197.48
2022-11-08T21:53:53.911Z,192.93
2022-11-08T21:56:24.854Z,190.07
2022-11-08T21:58:53.011Z,186.68
2022-11-08T22:01:22.159Z,181.52
2022-11-08T22:03:50.838Z,192.48
2022-11-08T22:06:17.424Z,180.63
2022-11-08T22:08:43.970Z,189.57
2022-11-08T22:11:10.541Z,180.13
2022-11-08T22:13:37.117Z,178.32
2022-11-08T22:16:03.878Z,176.45
2022-11-08T22:18:58.225Z,188.90
2022-11-08T22:21:35.562Z,187.88
2022-11-08T22:24:02.295Z,191.88
2022-11-08T22:26:28.825Z,209.70
2022-11-08T22:28:55.370Z,203.15
2022-11-08T22:31:21.925Z,209.50
2022-11-08T22:33:48.730Z,206.30
2022-11-08T22:36:16.491Z,201.27
2022-11-08T22:38:43.053Z,208.77
2022-11-08T22:41:09.657Z,214.60
2022-11-08T22:43:36.343Z,213.93
2022-11-08T22:46:03.433Z,218.55
2022-11-08T22:48:30.005Z,213.35
2022-11-08T22:50:57.451Z,228.63
2022-11-08T22:53:24.134Z,225.38
2022-11-08T22:55:50.718Z,224.25
2022-11-08T22:58:17.590Z,229.65
2022-11-08T23:00:44.129Z,222.68
2022-11-08T23:03:11.109Z,227.68
2022-11-08T23:05:37.666Z,231.35
2022-11-08T23:08:04.443Z,241.88
2022-11-08T23:10:31.032Z,243.18
2022-11-08T23:13:16.315Z,248.55
2022-11-08T23:16:01.273Z,253.60
2022-11-08T23:18:27.865Z,244.38
2022-11-08T23:21:13.496Z,252.43
2022-11-08T23:23:58.777Z,253.13
2022-11-08T23:26:45.970Z,253.65
2022-11-08T23:29:30.787Z,252.18
2022-11-08T23:31:57.604Z,262.05
2022-11-08T23:34:24.184Z,250.75
2022-11-08T23:36:50.730Z,258.98
2022-11-08T23:39:17.342Z,259.73
2022-11-08T23:42:02.305Z,263.27
2022-11-08T23:46:56.417Z,243.98
2022-11-08T23:49:22.969Z,258.27
2022-11-08T23:51:50.043Z,269.20
2022-11-08T23:54:16.931Z,269.40
2022-11-08T23:56:44.229Z,278.40
2022-11-08T23:59:11.800Z,274.05
